sensor_id;sensor_type;location;lat;lon;timestamp;P1;durP1;ratioP1;P2;durP2;ratioP2
80983;SDS011;70442;53.094;8.792;2023-06-22T00:01:47;4.03;;;1.70;;
80983;SDS011;70442;53.094;8.792;2023-06-22T00:04:12;3.13;;;1.50;;
80983;SDS011;70442;53.094;8.792;2023-06-22T00:06:37;2.53;;;1.60;;
80983;SDS011;70442;53.094;8.792;2023-06-22T00:09:03;2.47;;;1.75;;
80983;SDS011;70442;53.094;8.792;2023-06-22T00:11:28;3.60;;;2.10;;
80983;SDS011;70442;53.094;8.792;2023-06-22T00:13:53;2.97;;;1.42;;
80983;SDS011;70442;53.094;8.792;2023-06-22T00:16:19;3.00;;;1.83;;
80983;SDS011;70442;53.094;8.792;2023-06-22T00:18:44;2.80;;;1.50;;
80983;SDS011;70442;53.094;8.792;2023-06-22T00:21:12;2.67;;;1.50;;
80983;SDS011;70442;53.094;8.792;2023-06-22T00:23:37;2.10;;;1.45;;
80983;SDS011;70442;53.094;8.792;2023-06-22T00:26:03;2.17;;;1.37;;
80983;SDS011;70442;53.094;8.792;2023-06-22T00:28:28;2.88;;;1.75;;
80983;SDS011;70442;53.094;8.792;2023-06-22T00:30:54;3.00;;;1.80;;
80983;SDS011;70442;53.094;8.792;2023-06-22T00:33:19;3.15;;;1.80;;
80983;SDS011;70442;53.094;8.792;2023-06-22T00:35:45;2.45;;;1.63;;
80983;SDS011;70442;53.094;8.792;2023-06-22T00:38:10;3.00;;;1.77;;
80983;SDS011;70442;53.094;8.792;2023-06-22T00:40:36;2.75;;;2.00;;
80983;SDS011;70442;53.094;8.792;2023-06-22T00:43:02;3.00;;;1.92;;
80983;SDS011;70442;53.094;8.792;2023-06-22T00:45:27;2.67;;;1.98;;
80983;SDS011;70442;53.094;8.792;2023-06-22T00:47:53;2.20;;;1.70;;
80983;SDS011;70442;53.094;8.792;2023-06-22T00:50:20;3.00;;;1.83;;
80983;SDS011;70442;53.094;8.792;2023-06-22T00:52:48;2.42;;;1.50;;
80983;SDS011;70442;53.094;8.792;2023-06-22T00:55:16;2.22;;;1.65;;
80983;SDS011;70442;53.094;8.792;2023-06-22T01:00:08;2.90;;;1.95;;
80983;SDS011;70442;53.094;8.792;2023-06-22T01:02:35;2.88;;;1.80;;
80983;SDS011;70442;53.094;8.792;2023-06-22T01:05:01;2.58;;;1.80;;
80983;SDS011;70442;53.094;8.792;2023-06-22T01:07:31;3.08;;;2.10;;
80983;SDS011;70442;53.094;8.792;2023-06-22T01:13:07;2.85;;;2.05;;
80983;SDS011;70442;53.094;8.792;2023-06-22T01:15:37;3.78;;;2.20;;
80983;SDS011;70442;53.094;8.792;2023-06-22T01:18:06;2.55;;;1.95;;
80983;SDS011;70442;53.094;8.792;2023-06-22T01:20:34;2.55;;;1.85;;
80983;SDS011;70442;53.094;8.792;2023-06-22T01:25:47;3.47;;;2.22;;
80983;SDS011;70442;53.094;8.792;2023-06-22T01:28:23;3.50;;;2.20;;
80983;SDS011;70442;53.094;8.792;2023-06-22T01:30:57;2.55;;;2.00;;
80983;SDS011;70442;53.094;8.792;2023-06-22T01:33:34;3.35;;;2.13;;
80983;SDS011;70442;53.094;8.792;2023-06-22T01:36:01;4.05;;;2.65;;
80983;SDS011;70442;53.094;8.792;2023-06-22T01:38:27;3.30;;;1.92;;
80983;SDS011;70442;53.094;8.792;2023-06-22T01:40:53;2.92;;;1.92;;
80983;SDS011;70442;53.094;8.792;2023-06-22T01:43:20;4.63;;;2.38;;
80983;SDS011;70442;53.094;8.792;2023-06-22T01:45:48;4.05;;;2.30;;
80983;SDS011;70442;53.094;8.792;2023-06-22T01:48:13;3.05;;;2.17;;
80983;SDS011;70442;53.094;8.792;2023-06-22T01:50:38;2.93;;;2.13;;
80983;SDS011;70442;53.094;8.792;2023-06-22T01:53:04;4.20;;;2.28;;
80983;SDS011;70442;53.094;8.792;2023-06-22T01:55:31;2.78;;;1.90;;
80983;SDS011;70442;53.094;8.792;2023-06-22T01:57:57;2.47;;;1.87;;
80983;SDS011;70442;53.094;8.792;2023-06-22T02:00:22;4.37;;;2.33;;
80983;SDS011;70442;53.094;8.792;2023-06-22T02:02:52;3.30;;;2.28;;
80983;SDS011;70442;53.094;8.792;2023-06-22T02:05:19;3.65;;;2.60;;
80983;SDS011;70442;53.094;8.792;2023-06-22T02:07:46;3.65;;;2.50;;
80983;SDS011;70442;53.094;8.792;2023-06-22T02:10:22;3.17;;;2.30;;
80983;SDS011;70442;53.094;8.792;2023-06-22T02:12:48;3.53;;;2.47;;
80983;SDS011;70442;53.094;8.792;2023-06-22T02:15:15;4.25;;;2.38;;
80983;SDS011;70442;53.094;8.792;2023-06-22T02:17:41;3.58;;;2.47;;
80983;SDS011;70442;53.094;8.792;2023-06-22T02:20:11;3.75;;;2.45;;
80983;SDS011;70442;53.094;8.792;2023-06-22T02:22:40;3.33;;;2.25;;
80983;SDS011;70442;53.094;8.792;2023-06-22T02:25:06;3.70;;;2.83;;
80983;SDS011;70442;53.094;8.792;2023-06-22T02:27:31;2.75;;;2.30;;
80983;SDS011;70442;53.094;8.792;2023-06-22T02:29:57;3.22;;;2.28;;
80983;SDS011;70442;53.094;8.792;2023-06-22T02:32:22;2.63;;;2.27;;
80983;SDS011;70442;53.094;8.792;2023-06-22T02:34:47;3.40;;;2.70;;
80983;SDS011;70442;53.094;8.792;2023-06-22T02:37:13;6.03;;;3.43;;
80983;SDS011;70442;53.094;8.792;2023-06-22T02:39:42;4.53;;;3.00;;
80983;SDS011;70442;53.094;8.792;2023-06-22T02:42:07;3.37;;;2.70;;
80983;SDS011;70442;53.094;8.792;2023-06-22T02:44:33;3.50;;;2.60;;
80983;SDS011;70442;53.094;8.792;2023-06-22T02:46:58;3.87;;;2.60;;
80983;SDS011;70442;53.094;8.792;2023-06-22T02:49:23;3.43;;;2.33;;
80983;SDS011;70442;53.094;8.792;2023-06-22T02:51:49;4.63;;;2.72;;
80983;SDS011;70442;53.094;8.792;2023-06-22T02:54:14;4.50;;;2.72;;
80983;SDS011;70442;53.094;8.792;2023-06-22T02:56:40;3.27;;;2.53;;
80983;SDS011;70442;53.094;8.792;2023-06-22T02:59:08;2.92;;;2.28;;
80983;SDS011;70442;53.094;8.792;2023-06-22T03:01:35;3.63;;;2.70;;
80983;SDS011;70442;53.094;8.792;2023-06-22T03:04:05;4.43;;;2.83;;
80983;SDS011;70442;53.094;8.792;2023-06-22T03:08:59;2.93;;;2.37;;
80983;SDS011;70442;53.094;8.792;2023-06-22T03:11:25;3.83;;;2.83;;
80983;SDS011;70442;53.094;8.792;2023-06-22T03:13:51;4.07;;;2.97;;
80983;SDS011;70442;53.094;8.792;2023-06-22T03:16:17;4.45;;;3.10;;
80983;SDS011;70442;53.094;8.792;2023-06-22T03:18:42;4.63;;;3.45;;
80983;SDS011;70442;53.094;8.792;2023-06-22T03:21:08;4.00;;;3.22;;
80983;SDS011;70442;53.094;8.792;2023-06-22T03:23:33;4.07;;;3.03;;
80983;SDS011;70442;53.094;8.792;2023-06-22T03:25:58;3.90;;;2.60;;
80983;SDS011;70442;53.094;8.792;2023-06-22T03:28:24;4.07;;;3.03;;
80983;SDS011;70442;53.094;8.792;2023-06-22T03:30:49;4.43;;;3.17;;
80983;SDS011;70442;53.094;8.792;2023-06-22T03:33:14;5.07;;;3.20;;
80983;SDS011;70442;53.094;8.792;2023-06-22T03:35:39;5.17;;;3.30;;
80983;SDS011;70442;53.094;8.792;2023-06-22T03:38:05;3.77;;;2.70;;
80983;SDS011;70442;53.094;8.792;2023-06-22T03:40:30;4.10;;;3.13;;
80983;SDS011;70442;53.094;8.792;2023-06-22T03:42:55;4.67;;;3.30;;
80983;SDS011;70442;53.094;8.792;2023-06-22T03:45:21;4.40;;;3.40;;
80983;SDS011;70442;53.094;8.792;2023-06-22T03:47:46;5.13;;;3.47;;
80983;SDS011;70442;53.094;8.792;2023-06-22T03:50:11;4.00;;;3.00;;
80983;SDS011;70442;53.094;8.792;2023-06-22T03:52:37;4.13;;;3.10;;
80983;SDS011;70442;53.094;8.792;2023-06-22T03:55:02;4.27;;;3.20;;
80983;SDS011;70442;53.094;8.792;2023-06-22T03:57:28;4.78;;;2.90;;
80983;SDS011;70442;53.094;8.792;2023-06-22T03:59:56;5.67;;;3.47;;
80983;SDS011;70442;53.094;8.792;2023-06-22T04:02:21;5.88;;;3.10;;
80983;SDS011;70442;53.094;8.792;2023-06-22T04:04:47;5.43;;;3.83;;
80983;SDS011;70442;53.094;8.792;2023-06-22T04:07:12;3.93;;;3.13;;
80983;SDS011;70442;53.094;8.792;2023-06-22T04:09:37;4.30;;;3.13;;
80983;SDS011;70442;53.094;8.792;2023-06-22T04:12:03;3.70;;;3.13;;
80983;SDS011;70442;53.094;8.792;2023-06-22T04:14:28;5.05;;;3.35;;
80983;SDS011;70442;53.094;8.792;2023-06-22T04:16:54;4.67;;;3.43;;
80983;SDS011;70442;53.094;8.792;2023-06-22T04:19:19;4.83;;;3.43;;
80983;SDS011;70442;53.094;8.792;2023-06-22T04:21:44;3.90;;;3.20;;
80983;SDS011;70442;53.094;8.792;2023-06-22T04:24:13;3.78;;;3.15;;
80983;SDS011;70442;53.094;8.792;2023-06-22T04:26:38;5.05;;;3.65;;
80983;SDS011;70442;53.094;8.792;2023-06-22T04:29:06;4.45;;;3.47;;
80983;SDS011;70442;53.094;8.792;2023-06-22T04:31:33;5.97;;;3.75;;
80983;SDS011;70442;53.094;8.792;2023-06-22T04:34:02;4.88;;;3.45;;
80983;SDS011;70442;53.094;8.792;2023-06-22T04:36:32;5.05;;;3.90;;
80983;SDS011;70442;53.094;8.792;2023-06-22T04:41:29;4.55;;;3.53;;
80983;SDS011;70442;53.094;8.792;2023-06-22T04:43:55;6.20;;;3.87;;
80983;SDS011;70442;53.094;8.792;2023-06-22T04:46:24;5.20;;;3.95;;
80983;SDS011;70442;53.094;8.792;2023-06-22T04:48:50;5.10;;;3.77;;
80983;SDS011;70442;53.094;8.792;2023-06-22T04:51:15;5.70;;;4.10;;
80983;SDS011;70442;53.094;8.792;2023-06-22T04:53:40;5.97;;;4.22;;
80983;SDS011;70442;53.094;8.792;2023-06-22T04:58:33;4.90;;;3.50;;
80983;SDS011;70442;53.094;8.792;2023-06-22T05:00:58;6.20;;;4.38;;
80983;SDS011;70442;53.094;8.792;2023-06-22T05:03:26;5.57;;;4.10;;
80983;SDS011;70442;53.094;8.792;2023-06-22T05:05:52;5.65;;;4.35;;
80983;SDS011;70442;53.094;8.792;2023-06-22T05:08:18;5.68;;;4.35;;
80983;SDS011;70442;53.094;8.792;2023-06-22T05:10:44;5.27;;;4.03;;
80983;SDS011;70442;53.094;8.792;2023-06-22T05:13:09;6.43;;;4.43;;
80983;SDS011;70442;53.094;8.792;2023-06-22T05:15:34;5.37;;;4.00;;
80983;SDS011;70442;53.094;8.792;2023-06-22T05:18:04;5.47;;;3.55;;
80983;SDS011;70442;53.094;8.792;2023-06-22T05:20:30;6.53;;;4.72;;
80983;SDS011;70442;53.094;8.792;2023-06-22T05:22:55;5.93;;;4.13;;
80983;SDS011;70442;53.094;8.792;2023-06-22T05:25:21;7.43;;;4.40;;
80983;SDS011;70442;53.094;8.792;2023-06-22T05:27:46;6.43;;;4.20;;
80983;SDS011;70442;53.094;8.792;2023-06-22T05:30:11;5.80;;;4.07;;
80983;SDS011;70442;53.094;8.792;2023-06-22T05:32:37;5.25;;;3.78;;
80983;SDS011;70442;53.094;8.792;2023-06-22T05:35:03;6.20;;;3.70;;
80983;SDS011;70442;53.094;8.792;2023-06-22T05:37:28;5.53;;;4.15;;
80983;SDS011;70442;53.094;8.792;2023-06-22T05:39:54;5.80;;;4.00;;
80983;SDS011;70442;53.094;8.792;2023-06-22T05:42:20;6.60;;;4.30;;
80983;SDS011;70442;53.094;8.792;2023-06-22T05:44:45;5.57;;;4.25;;
80983;SDS011;70442;53.094;8.792;2023-06-22T05:47:12;4.88;;;3.53;;
80983;SDS011;70442;53.094;8.792;2023-06-22T05:49:37;4.43;;;3.35;;
80983;SDS011;70442;53.094;8.792;2023-06-22T05:52:02;4.83;;;3.27;;
80983;SDS011;70442;53.094;8.792;2023-06-22T05:54:28;4.20;;;3.13;;
80983;SDS011;70442;53.094;8.792;2023-06-22T05:56:53;4.60;;;3.08;;
80983;SDS011;70442;53.094;8.792;2023-06-22T05:59:19;4.97;;;3.33;;
80983;SDS011;70442;53.094;8.792;2023-06-22T06:01:44;4.18;;;3.30;;
80983;SDS011;70442;53.094;8.792;2023-06-22T06:04:09;5.10;;;3.37;;
80983;SDS011;70442;53.094;8.792;2023-06-22T06:06:35;4.03;;;2.90;;
80983;SDS011;70442;53.094;8.792;2023-06-22T06:09:03;5.10;;;3.40;;
80983;SDS011;70442;53.094;8.792;2023-06-22T06:11:29;5.45;;;3.88;;
80983;SDS011;70442;53.094;8.792;2023-06-22T06:13:54;5.23;;;3.23;;
80983;SDS011;70442;53.094;8.792;2023-06-22T06:16:20;4.15;;;3.33;;
80983;SDS011;70442;53.094;8.792;2023-06-22T06:18:45;5.47;;;3.60;;
80983;SDS011;70442;53.094;8.792;2023-06-22T06:21:10;4.87;;;3.83;;
80983;SDS011;70442;53.094;8.792;2023-06-22T06:23:36;5.30;;;3.23;;
80983;SDS011;70442;53.094;8.792;2023-06-22T06:26:01;4.90;;;3.33;;
80983;SDS011;70442;53.094;8.792;2023-06-22T06:28:27;4.93;;;3.40;;
80983;SDS011;70442;53.094;8.792;2023-06-22T06:30:52;4.57;;;3.05;;
80983;SDS011;70442;53.094;8.792;2023-06-22T06:33:17;4.30;;;3.05;;
80983;SDS011;70442;53.094;8.792;2023-06-22T06:35:43;4.90;;;3.38;;
80983;SDS011;70442;53.094;8.792;2023-06-22T06:38:09;4.57;;;2.90;;
80983;SDS011;70442;53.094;8.792;2023-06-22T06:40:34;4.43;;;3.13;;
80983;SDS011;70442;53.094;8.792;2023-06-22T06:42:59;4.40;;;3.00;;
80983;SDS011;70442;53.094;8.792;2023-06-22T06:45:26;4.20;;;3.10;;
80983;SDS011;70442;53.094;8.792;2023-06-22T06:47:53;4.18;;;3.25;;
80983;SDS011;70442;53.094;8.792;2023-06-22T06:50:18;4.87;;;3.17;;
80983;SDS011;70442;53.094;8.792;2023-06-22T06:52:44;4.07;;;3.30;;
80983;SDS011;70442;53.094;8.792;2023-06-22T06:55:09;4.40;;;3.33;;
80983;SDS011;70442;53.094;8.792;2023-06-22T06:57:37;4.57;;;2.97;;
80983;SDS011;70442;53.094;8.792;2023-06-22T07:00:06;3.83;;;2.72;;
80983;SDS011;70442;53.094;8.792;2023-06-22T07:02:37;4.20;;;2.92;;
80983;SDS011;70442;53.094;8.792;2023-06-22T07:05:03;4.43;;;2.70;;
80983;SDS011;70442;53.094;8.792;2023-06-22T07:07:29;4.75;;;2.92;;
80983;SDS011;70442;53.094;8.792;2023-06-22T07:09:54;4.68;;;2.97;;
80983;SDS011;70442;53.094;8.792;2023-06-22T07:12:20;5.27;;;2.77;;
80983;SDS011;70442;53.094;8.792;2023-06-22T07:14:46;4.40;;;2.90;;
80983;SDS011;70442;53.094;8.792;2023-06-22T07:17:11;3.50;;;2.57;;
80983;SDS011;70442;53.094;8.792;2023-06-22T07:19:36;5.50;;;2.63;;
80983;SDS011;70442;53.094;8.792;2023-06-22T07:22:01;3.40;;;2.50;;
80983;SDS011;70442;53.094;8.792;2023-06-22T07:24:27;3.60;;;2.63;;
80983;SDS011;70442;53.094;8.792;2023-06-22T07:26:52;3.87;;;2.77;;
80983;SDS011;70442;53.094;8.792;2023-06-22T07:29:17;3.63;;;2.63;;
80983;SDS011;70442;53.094;8.792;2023-06-22T07:31:43;4.43;;;2.47;;
80983;SDS011;70442;53.094;8.792;2023-06-22T07:34:09;3.22;;;2.17;;
80983;SDS011;70442;53.094;8.792;2023-06-22T07:36:35;3.83;;;2.60;;
80983;SDS011;70442;53.094;8.792;2023-06-22T07:39:01;3.47;;;2.28;;
80983;SDS011;70442;53.094;8.792;2023-06-22T07:41:27;3.83;;;2.33;;
80983;SDS011;70442;53.094;8.792;2023-06-22T07:43:53;3.43;;;2.27;;
80983;SDS011;70442;53.094;8.792;2023-06-22T07:46:18;3.53;;;2.40;;
80983;SDS011;70442;53.094;8.792;2023-06-22T07:48:43;2.50;;;1.90;;
80983;SDS011;70442;53.094;8.792;2023-06-22T07:51:09;2.70;;;1.98;;
80983;SDS011;70442;53.094;8.792;2023-06-22T07:53:37;3.05;;;2.05;;
80983;SDS011;70442;53.094;8.792;2023-06-22T07:56:03;3.17;;;1.83;;
80983;SDS011;70442;53.094;8.792;2023-06-22T07:58:32;3.80;;;2.10;;
80983;SDS011;70442;53.094;8.792;2023-06-22T08:00:57;2.60;;;1.65;;
80983;SDS011;70442;53.094;8.792;2023-06-22T08:03:22;4.70;;;2.22;;
80983;SDS011;70442;53.094;8.792;2023-06-22T08:05:48;2.47;;;1.60;;
80983;SDS011;70442;53.094;8.792;2023-06-22T08:08:13;2.65;;;1.58;;
80983;SDS011;70442;53.094;8.792;2023-06-22T08:10:39;3.50;;;2.05;;
80983;SDS011;70442;53.094;8.792;2023-06-22T08:13:06;2.60;;;1.83;;
80983;SDS011;70442;53.094;8.792;2023-06-22T08:15:31;2.72;;;1.80;;
80983;SDS011;70442;53.094;8.792;2023-06-22T08:17:56;3.60;;;1.97;;
80983;SDS011;70442;53.094;8.792;2023-06-22T08:20:22;3.20;;;1.80;;
80983;SDS011;70442;53.094;8.792;2023-06-22T08:22:48;2.80;;;1.77;;
80983;SDS011;70442;53.094;8.792;2023-06-22T08:25:13;3.10;;;1.60;;
80983;SDS011;70442;53.094;8.792;2023-06-22T08:27:39;2.45;;;1.73;;
80983;SDS011;70442;53.094;8.792;2023-06-22T08:30:05;2.92;;;1.73;;
80983;SDS011;70442;53.094;8.792;2023-06-22T08:32:31;2.50;;;1.35;;
80983;SDS011;70442;53.094;8.792;2023-06-22T08:34:57;3.70;;;2.15;;
80983;SDS011;70442;53.094;8.792;2023-06-22T08:37:23;1.85;;;1.50;;
80983;SDS011;70442;53.094;8.792;2023-06-22T08:39:50;2.67;;;1.63;;
80983;SDS011;70442;53.094;8.792;2023-06-22T08:42:16;2.08;;;1.45;;
80983;SDS011;70442;53.094;8.792;2023-06-22T08:44:41;1.90;;;1.20;;
80983;SDS011;70442;53.094;8.792;2023-06-22T08:47:06;3.27;;;1.47;;
80983;SDS011;70442;53.094;8.792;2023-06-22T08:49:32;1.80;;;1.17;;
80983;SDS011;70442;53.094;8.792;2023-06-22T08:51:57;3.50;;;1.70;;
80983;SDS011;70442;53.094;8.792;2023-06-22T08:54:22;1.80;;;1.10;;
80983;SDS011;70442;53.094;8.792;2023-06-22T08:56:48;2.28;;;1.60;;
80983;SDS011;70442;53.094;8.792;2023-06-22T08:59:13;2.33;;;1.50;;
80983;SDS011;70442;53.094;8.792;2023-06-22T09:01:38;2.57;;;1.40;;
80983;SDS011;70442;53.094;8.792;2023-06-22T09:04:04;2.50;;;1.40;;
80983;SDS011;70442;53.094;8.792;2023-06-22T09:06:31;2.70;;;1.67;;
80983;SDS011;70442;53.094;8.792;2023-06-22T09:08:56;2.65;;;1.55;;
80983;SDS011;70442;53.094;8.792;2023-06-22T09:11:24;2.53;;;1.60;;
80983;SDS011;70442;53.094;8.792;2023-06-22T09:13:49;2.42;;;1.45;;
80983;SDS011;70442;53.094;8.792;2023-06-22T09:16:15;1.85;;;1.23;;
80983;SDS011;70442;53.094;8.792;2023-06-22T09:18:43;2.03;;;1.40;;
80983;SDS011;70442;53.094;8.792;2023-06-22T09:21:12;2.13;;;1.35;;
80983;SDS011;70442;53.094;8.792;2023-06-22T09:23:37;2.40;;;1.27;;
80983;SDS011;70442;53.094;8.792;2023-06-22T09:26:02;1.63;;;1.10;;
80983;SDS011;70442;53.094;8.792;2023-06-22T09:28:29;1.77;;;1.08;;
80983;SDS011;70442;53.094;8.792;2023-06-22T09:30:54;2.17;;;1.30;;
80983;SDS011;70442;53.094;8.792;2023-06-22T09:33:24;2.15;;;1.20;;
80983;SDS011;70442;53.094;8.792;2023-06-22T09:35:50;2.22;;;1.30;;
80983;SDS011;70442;53.094;8.792;2023-06-22T09:38:16;2.10;;;1.20;;
80983;SDS011;70442;53.094;8.792;2023-06-22T09:40:41;3.03;;;1.85;;
80983;SDS011;70442;53.094;8.792;2023-06-22T09:43:06;2.00;;;1.40;;
80983;SDS011;70442;53.094;8.792;2023-06-22T09:45:32;2.73;;;1.83;;
80983;SDS011;70442;53.094;8.792;2023-06-22T09:47:57;3.10;;;1.80;;
80983;SDS011;70442;53.094;8.792;2023-06-22T09:50:22;2.90;;;1.77;;
80983;SDS011;70442;53.094;8.792;2023-06-22T09:52:48;2.13;;;1.40;;
80983;SDS011;70442;53.094;8.792;2023-06-22T09:55:15;2.22;;;1.65;;
80983;SDS011;70442;53.094;8.792;2023-06-22T09:57:41;2.38;;;1.60;;
80983;SDS011;70442;53.094;8.792;2023-06-22T10:00:06;2.40;;;1.90;;
80983;SDS011;70442;53.094;8.792;2023-06-22T10:02:38;2.60;;;1.90;;
80983;SDS011;70442;53.094;8.792;2023-06-22T10:05:04;3.00;;;1.67;;
80983;SDS011;70442;53.094;8.792;2023-06-22T10:07:29;2.78;;;1.77;;
80983;SDS011;70442;53.094;8.792;2023-06-22T10:09:54;3.37;;;1.87;;
80983;SDS011;70442;53.094;8.792;2023-06-22T10:12:20;2.45;;;1.75;;
80983;SDS011;70442;53.094;8.792;2023-06-22T10:14:45;4.57;;;1.90;;
80983;SDS011;70442;53.094;8.792;2023-06-22T10:17:10;2.70;;;2.00;;
80983;SDS011;70442;53.094;8.792;2023-06-22T10:19:36;3.93;;;1.73;;
80983;SDS011;70442;53.094;8.792;2023-06-22T10:22:02;2.70;;;1.80;;
80983;SDS011;70442;53.094;8.792;2023-06-22T10:24:29;2.78;;;1.67;;
80983;SDS011;70442;53.094;8.792;2023-06-22T10:26:54;2.07;;;1.57;;
80983;SDS011;70442;53.094;8.792;2023-06-22T10:29:20;2.60;;;1.55;;
80983;SDS011;70442;53.094;8.792;2023-06-22T10:31:45;2.50;;;1.83;;
80983;SDS011;70442;53.094;8.792;2023-06-22T10:34:13;2.40;;;1.80;;
80983;SDS011;70442;53.094;8.792;2023-06-22T10:36:38;2.53;;;1.80;;
80983;SDS011;70442;53.094;8.792;2023-06-22T10:39:04;3.25;;;1.83;;
80983;SDS011;70442;53.094;8.792;2023-06-22T10:41:30;2.30;;;1.67;;
80983;SDS011;70442;53.094;8.792;2023-06-22T10:43:56;2.63;;;1.53;;
80983;SDS011;70442;53.094;8.792;2023-06-22T10:46:21;2.20;;;1.58;;
80983;SDS011;70442;53.094;8.792;2023-06-22T10:48:47;3.70;;;1.77;;
80983;SDS011;70442;53.094;8.792;2023-06-22T10:51:12;2.65;;;1.90;;
80983;SDS011;70442;53.094;8.792;2023-06-22T10:53:37;2.70;;;2.20;;
80983;SDS011;70442;53.094;8.792;2023-06-22T10:56:03;3.33;;;1.90;;
80983;SDS011;70442;53.094;8.792;2023-06-22T10:58:28;1.90;;;1.50;;
80983;SDS011;70442;53.094;8.792;2023-06-22T11:00:53;2.08;;;1.40;;
80983;SDS011;70442;53.094;8.792;2023-06-22T11:03:19;2.73;;;2.00;;
80983;SDS011;70442;53.094;8.792;2023-06-22T11:05:44;2.47;;;1.60;;
80983;SDS011;70442;53.094;8.792;2023-06-22T11:08:09;2.70;;;1.83;;
80983;SDS011;70442;53.094;8.792;2023-06-22T11:10:35;2.20;;;1.70;;
80983;SDS011;70442;53.094;8.792;2023-06-22T11:13:00;1.97;;;1.40;;
80983;SDS011;70442;53.094;8.792;2023-06-22T11:15:27;2.35;;;1.70;;
80983;SDS011;70442;53.094;8.792;2023-06-22T11:17:53;2.50;;;1.80;;
80983;SDS011;70442;53.094;8.792;2023-06-22T11:20:18;2.23;;;1.53;;
80983;SDS011;70442;53.094;8.792;2023-06-22T11:22:43;2.30;;;1.50;;
80983;SDS011;70442;53.094;8.792;2023-06-22T11:25:08;2.93;;;1.80;;
80983;SDS011;70442;53.094;8.792;2023-06-22T11:27:34;2.60;;;1.70;;
80983;SDS011;70442;53.094;8.792;2023-06-22T11:29:59;2.50;;;1.80;;
80983;SDS011;70442;53.094;8.792;2023-06-22T11:32:25;2.57;;;1.63;;
80983;SDS011;70442;53.094;8.792;2023-06-22T11:34:50;2.25;;;1.73;;
80983;SDS011;70442;53.094;8.792;2023-06-22T11:37:15;3.33;;;1.87;;
80983;SDS011;70442;53.094;8.792;2023-06-22T11:39:41;2.30;;;1.70;;
80983;SDS011;70442;53.094;8.792;2023-06-22T11:42:07;2.85;;;1.90;;
80983;SDS011;70442;53.094;8.792;2023-06-22T11:44:36;3.15;;;1.65;;
80983;SDS011;70442;53.094;8.792;2023-06-22T11:47:02;2.35;;;1.83;;
80983;SDS011;70442;53.094;8.792;2023-06-22T11:49:29;2.10;;;1.48;;
80983;SDS011;70442;53.094;8.792;2023-06-22T11:51:55;2.83;;;2.00;;
80983;SDS011;70442;53.094;8.792;2023-06-22T11:54:20;2.37;;;1.83;;
80983;SDS011;70442;53.094;8.792;2023-06-22T11:56:46;3.83;;;1.60;;
80983;SDS011;70442;53.094;8.792;2023-06-22T11:59:11;2.20;;;1.52;;
80983;SDS011;70442;53.094;8.792;2023-06-22T12:01:36;2.47;;;1.83;;
80983;SDS011;70442;53.094;8.792;2023-06-22T12:04:02;2.37;;;1.70;;
80983;SDS011;70442;53.094;8.792;2023-06-22T12:06:30;2.10;;;1.55;;
80983;SDS011;70442;53.094;8.792;2023-06-22T12:08:56;3.08;;;1.92;;
80983;SDS011;70442;53.094;8.792;2023-06-22T12:11:21;2.27;;;1.50;;
80983;SDS011;70442;53.094;8.792;2023-06-22T12:13:46;2.00;;;1.60;;
80983;SDS011;70442;53.094;8.792;2023-06-22T12:16:12;1.90;;;1.50;;
80983;SDS011;70442;53.094;8.792;2023-06-22T12:18:37;2.50;;;1.60;;
80983;SDS011;70442;53.094;8.792;2023-06-22T12:21:02;2.30;;;1.70;;
80983;SDS011;70442;53.094;8.792;2023-06-22T12:23:28;2.30;;;1.70;;
80983;SDS011;70442;53.094;8.792;2023-06-22T12:25:53;2.23;;;1.57;;
80983;SDS011;70442;53.094;8.792;2023-06-22T12:28:18;2.23;;;1.50;;
80983;SDS011;70442;53.094;8.792;2023-06-22T12:30:44;2.03;;;1.52;;
80983;SDS011;70442;53.094;8.792;2023-06-22T12:33:09;2.60;;;1.40;;
80983;SDS011;70442;53.094;8.792;2023-06-22T12:35:34;3.03;;;1.63;;
80983;SDS011;70442;53.094;8.792;2023-06-22T12:38:00;2.57;;;1.80;;
80983;SDS011;70442;53.094;8.792;2023-06-22T12:40:25;2.37;;;1.67;;
80983;SDS011;70442;53.094;8.792;2023-06-22T12:42:50;2.40;;;1.70;;
80983;SDS011;70442;53.094;8.792;2023-06-22T12:45:16;2.60;;;1.70;;
80983;SDS011;70442;53.094;8.792;2023-06-22T12:47:41;2.15;;;1.75;;
80983;SDS011;70442;53.094;8.792;2023-06-22T12:50:06;3.13;;;1.53;;
80983;SDS011;70442;53.094;8.792;2023-06-22T12:52:32;2.13;;;1.60;;
80983;SDS011;70442;53.094;8.792;2023-06-22T12:54:57;2.90;;;1.70;;
80983;SDS011;70442;53.094;8.792;2023-06-22T12:57:23;1.83;;;1.60;;
80983;SDS011;70442;53.094;8.792;2023-06-22T12:59:48;2.10;;;1.73;;
80983;SDS011;70442;53.094;8.792;2023-06-22T13:02:14;2.63;;;1.63;;
80983;SDS011;70442;53.094;8.792;2023-06-22T13:04:39;1.92;;;1.50;;
80983;SDS011;70442;53.094;8.792;2023-06-22T13:07:05;2.63;;;1.60;;
80983;SDS011;70442;53.094;8.792;2023-06-22T13:09:30;2.67;;;1.70;;
80983;SDS011;70442;53.094;8.792;2023-06-22T13:11:56;2.13;;;1.52;;
80983;SDS011;70442;53.094;8.792;2023-06-22T13:14:21;2.83;;;1.73;;
80983;SDS011;70442;53.094;8.792;2023-06-22T13:16:46;2.17;;;1.63;;
80983;SDS011;70442;53.094;8.792;2023-06-22T13:19:12;2.10;;;1.80;;
80983;SDS011;70442;53.094;8.792;2023-06-22T13:21:37;2.50;;;1.83;;
80983;SDS011;70442;53.094;8.792;2023-06-22T13:24:03;1.92;;;1.45;;
80983;SDS011;70442;53.094;8.792;2023-06-22T13:26:28;2.45;;;1.90;;
80983;SDS011;70442;53.094;8.792;2023-06-22T13:28:54;2.33;;;1.73;;
80983;SDS011;70442;53.094;8.792;2023-06-22T13:31:19;2.10;;;1.50;;
80983;SDS011;70442;53.094;8.792;2023-06-22T13:33:45;2.58;;;1.65;;
80983;SDS011;70442;53.094;8.792;2023-06-22T13:36:12;2.53;;;1.88;;
80983;SDS011;70442;53.094;8.792;2023-06-22T13:38:38;1.83;;;1.55;;
80983;SDS011;70442;53.094;8.792;2023-06-22T13:41:03;2.27;;;1.67;;
80983;SDS011;70442;53.094;8.792;2023-06-22T13:43:29;2.53;;;1.90;;
80983;SDS011;70442;53.094;8.792;2023-06-22T13:45:54;2.50;;;1.63;;
80983;SDS011;70442;53.094;8.792;2023-06-22T13:48:20;2.70;;;1.60;;
80983;SDS011;70442;53.094;8.792;2023-06-22T13:50:45;2.10;;;1.55;;
80983;SDS011;70442;53.094;8.792;2023-06-22T13:53:11;2.23;;;1.60;;
80983;SDS011;70442;53.094;8.792;2023-06-22T13:55:36;2.20;;;1.60;;
80983;SDS011;70442;53.094;8.792;2023-06-22T13:58:01;2.50;;;1.80;;
80983;SDS011;70442;53.094;8.792;2023-06-22T14:00:26;2.10;;;1.63;;
80983;SDS011;70442;53.094;8.792;2023-06-22T14:02:53;2.90;;;1.83;;
80983;SDS011;70442;53.094;8.792;2023-06-22T14:05:18;1.85;;;1.63;;
80983;SDS011;70442;53.094;8.792;2023-06-22T14:07:43;2.03;;;1.73;;
80983;SDS011;70442;53.094;8.792;2023-06-22T14:10:09;2.63;;;1.83;;
80983;SDS011;70442;53.094;8.792;2023-06-22T14:12:34;2.72;;;1.92;;
80983;SDS011;70442;53.094;8.792;2023-06-22T14:15:00;3.05;;;1.80;;
80983;SDS011;70442;53.094;8.792;2023-06-22T14:17:25;1.90;;;1.50;;
80983;SDS011;70442;53.094;8.792;2023-06-22T14:19:51;2.88;;;1.88;;
80983;SDS011;70442;53.094;8.792;2023-06-22T14:22:20;2.80;;;1.98;;
80983;SDS011;70442;53.094;8.792;2023-06-22T14:24:47;1.98;;;1.55;;
80983;SDS011;70442;53.094;8.792;2023-06-22T14:27:13;2.47;;;1.80;;
80983;SDS011;70442;53.094;8.792;2023-06-22T14:29:38;1.85;;;1.58;;
80983;SDS011;70442;53.094;8.792;2023-06-22T14:32:03;3.03;;;2.20;;
80983;SDS011;70442;53.094;8.792;2023-06-22T14:34:31;2.60;;;2.08;;
80983;SDS011;70442;53.094;8.792;2023-06-22T14:36:56;2.23;;;1.80;;
80983;SDS011;70442;53.094;8.792;2023-06-22T14:39:22;2.42;;;1.85;;
80983;SDS011;70442;53.094;8.792;2023-06-22T14:41:47;3.03;;;1.80;;
80983;SDS011;70442;53.094;8.792;2023-06-22T14:44:12;2.37;;;1.90;;
80983;SDS011;70442;53.094;8.792;2023-06-22T14:46:37;2.40;;;1.87;;
80983;SDS011;70442;53.094;8.792;2023-06-22T14:49:03;2.53;;;1.88;;
80983;SDS011;70442;53.094;8.792;2023-06-22T14:51:28;2.93;;;1.80;;
80983;SDS011;70442;53.094;8.792;2023-06-22T14:53:54;2.83;;;1.73;;
80983;SDS011;70442;53.094;8.792;2023-06-22T14:56:19;2.58;;;1.90;;